Time;durP1;ratioP1;P1;durP2;ratioP2;P2;SDS_P1;SDS_P2;PMS_P1;PMS_P2;Temp;Humidity;BMP_temperature;BMP_pressure;BME280_temperature;BME280_humidity;BME280_pressure;Samples;Min_cycle;Max_cycle;Signal;HPM_P1;HPM_P2
2022/07/01 00:00:18;;;;;;;58.83;22.60;;;;;;;13.67;100.00;101465.75;4975959;28;20035;-91
2022/07/01 00:02:55;;;;;;;61.25;22.63;;;;;;;13.59;100.00;101465.94;4945684;29;20027;-91
2022/07/01 00:05:26;;;;;;;60.08;22.40;;;;;;;13.72;100.00;101510.75;4967539;28;20045;-90
2022/07/01 00:08:02;;;;;;;54.58;21.40;;;;;;;13.62;100.00;101483.25;4966043;28;20106;-90
2022/07/01 00:10:47;;;;;;;51.25;20.35;;;;;;;13.53;100.00;101479.13;4953172;28;20039;-91
2022/07/01 00:16:39;;;;;;;;;;;;;;;;;;;;;
2022/07/01 00:19:05;;;;;;;46.08;18.95;;;;;;;13.29;100.00;101462.38;4960630;28;20302;-91
2022/07/01 00:22:02;;;;;;;48.97;17.92;;;;;;;13.32;100.00;101461.44;4959495;28;20077;-91
2022/07/01 00:24:55;;;;;;;;;;;;;;;;;;;;;
2022/07/01 00:27:57;;;;;;;40.55;16.67;;;;;;;13.14;100.00;101454.94;4960834;28;20038;-90
2022/07/01 00:30:31;;;;;;;39.15;16.73;;;;;;;13.34;100.00;101480.50;4952876;28;20519;-91
2022/07/01 00:33:02;;;;;;;36.65;16.15;;;;;;;13.14;100.00;101464.50;4951018;28;20038;-91
2022/07/01 00:35:41;;;;;;;35.70;16.45;;;;;;;13.02;100.00;101468.22;4963728;28;20023;-90
2022/07/01 00:38:12;;;;;;;36.88;15.25;;;;;;;13.03;100.00;101439.53;4957525;28;20038;-90
2022/07/01 00:40:52;;;;;;;34.20;15.50;;;;;;;13.04;100.00;101449.06;4949239;29;20498;-91
2022/07/01 00:43:24;;;;;;;34.63;15.82;;;;;;;13.06;100.00;101457.69;4936671;28;20038;-92
2022/07/01 00:46:02;;;;;;;32.08;14.35;;;;;;;12.86;100.00;101446.91;4984322;28;20452;-91
2022/07/01 00:48:48;;;;;;;36.40;14.40;;;;;;;12.89;100.00;101459.00;4963749;28;20045;-91
2022/07/01 00:51:22;;;;;;;34.80;14.57;;;;;;;13.03;100.00;101469.94;4964539;28;20031;-90
2022/07/01 00:54:01;;;;;;;34.35;14.95;;;;;;;12.89;100.00;101461.59;4935631;29;20036;-93
2022/07/01 00:56:55;;;;;;;33.20;13.68;;;;;;;12.79;100.00;101452.28;4952163;28;20147;-90
2022/07/01 00:59:26;;;;;;;37.63;15.38;;;;;;;12.76;100.00;101441.97;4960112;28;20030;-90
2022/07/01 01:02:00;;;;;;;37.67;15.02;;;;;;;12.90;100.00;101466.75;4967438;28;20023;-92
2022/07/01 01:04:46;;;;;;;40.45;16.10;;;;;;;12.92;100.00;101456.31;4950649;28;20047;-91
2022/07/01 01:10:53;;;;;;;39.17;16.33;;;;;;;12.78;100.00;101468.78;4945781;28;20043;-91
2022/07/01 01:16:54;;;;;;;39.65;17.02;;;;;;;12.97;100.00;101517.75;4952606;28;20418;-90
2022/07/01 01:19:53;;;;;;;47.92;17.63;;;;;;;12.89;100.00;101504.09;4940591;28;20023;-91
2022/07/01 01:23:03;;;;;;;39.85;16.92;;;;;;;12.85;100.00;101509.38;4933049;29;20081;-91
2022/07/01 01:26:02;;;;;;;43.58;17.17;;;;;;;12.80;100.00;101500.84;4953458;28;20481;-90
2022/07/01 01:29:01;;;;;;;43.97;17.73;;;;;;;12.96;100.00;101536.03;4966053;28;20062;-94
2022/07/01 01:32:14;;;;;;;48.25;18.73;;;;;;;12.84;100.00;101507.66;4963681;28;20038;-94
2022/07/01 01:38:01;;;;;;;43.83;18.73;;;;;;;12.84;100.00;101513.72;4941828;28;20122;-93
2022/07/01 01:44:02;;;;;;;47.63;18.75;;;;;;;12.92;100.00;101526.56;4950247;28;20050;-94
2022/07/01 01:47:02;;;;;;;47.80;18.58;;;;;;;12.93;100.00;101525.69;4974093;28;20050;-94
2022/07/01 01:50:03;;;;;;;49.35;18.65;;;;;;;12.98;100.00;101539.44;4931018;29;20031;-93
2022/07/01 01:53:01;;;;;;;46.88;18.98;;;;;;;12.83;100.00;101517.22;4907627;29;20135;-94
2022/07/01 02:02:01;;;;;;;47.75;18.77;;;;;;;12.91;100.00;101491.03;4920715;29;20028;-94
2022/07/01 02:05:16;;;;;;;40.42;17.33;;;;;;;13.07;100.00;101528.84;4966113;28;20028;-92
2022/07/01 02:08:03;;;;;;;41.67;18.02;;;;;;;12.89;100.00;101508.44;4969552;28;20039;-95
2022/07/01 02:11:03;;;;;;;37.65;15.77;;;;;;;12.93;100.00;101513.53;4945124;28;20229;-95
2022/07/01 02:14:04;;;;;;;39.00;15.82;;;;;;;13.07;100.00;101527.09;4924002;29;20088;-95
2022/07/01 02:19:45;;;;;;;36.88;16.15;;;;;;;13.16;100.00;101548.63;4994813;28;20054;-85
2022/07/01 02:22:10;;;;;;;39.70;16.73;;;;;;;13.08;100.00;101548.78;4996329;28;20032;-85
2022/07/01 02:24:36;;;;;;;41.53;17.52;;;;;;;13.05;100.00;101554.88;4974293;28;20040;-85
2022/07/01 02:27:01;;;;;;;41.70;17.13;;;;;;;13.01;100.00;101552.41;4992232;28;20074;-85
2022/07/01 02:29:26;;;;;;;39.63;17.08;;;;;;;13.02;100.00;101564.53;4992108;28;20293;-85
2022/07/01 02:31:52;;;;;;;42.58;16.63;;;;;;;13.03;100.00;101571.44;4981007;28;20027;-84
2022/07/01 02:34:17;;;;;;;43.20;18.45;;;;;;;13.00;100.00;101561.09;4981724;28;20116;-84
2022/07/01 02:36:43;;;;;;;42.70;18.67;;;;;;;12.98;100.00;101558.53;4984771;28;20030;-85
2022/07/01 02:39:08;;;;;;;40.97;17.33;;;;;;;12.98;100.00;101549.84;4992413;28;20691;-85
2022/07/01 02:42:22;;;;;;;44.63;17.52;;;;;;;12.94;100.00;101546.47;4990691;28;20025;-85
2022/07/01 02:44:19;;;;;;;44.15;18.50;;;;;;;12.90;100.00;101534.41;4974045;28;20453;-84
2022/07/01 02:46:44;;;;;;;42.75;18.13;;;;;;;12.90;100.00;101525.75;4974321;28;20477;-85
2022/07/01 02:49:09;;;;;;;45.17;18.77;;;;;;;12.88;100.00;101522.34;4992478;28;20026;-92
2022/07/01 02:51:35;;;;;;;46.38;18.63;;;;;;;12.89;100.00;101524.91;4993347;28;20495;-92
2022/07/01 02:54:01;;;;;;;44.03;18.02;;;;;;;12.87;100.00;101544.03;4992235;28;20499;-92
2022/07/01 02:56:26;;;;;;;44.97;19.00;;;;;;;12.82;100.00;101546.75;4997910;28;20035;-92
2022/07/01 02:58:52;;;;;;;52.35;20.25;;;;;;;12.84;100.00;101551.91;4991341;28;20033;-93
2022/07/01 03:01:17;;;;;;;44.80;18.80;;;;;;;12.81;100.00;101550.25;4993169;28;20033;-92
2022/07/01 03:03:42;;;;;;;43.70;18.00;;;;;;;12.83;100.00;101560.63;4992127;28;20290;-92
2022/07/01 03:06:07;;;;;;;47.60;18.03;;;;;;;12.86;100.00;101571.81;4991360;28;20304;-91
2022/07/01 03:08:33;;;;;;;48.95;19.67;;;;;;;12.86;100.00;101573.53;4988849;28;20300;-91
2022/07/01 03:10:59;;;;;;;47.60;18.85;;;;;;;12.83;100.00;101569.25;4985714;28;20129;-91
2022/07/01 03:13:24;;;;;;;43.83;18.53;;;;;;;12.81;100.00;101567.59;4989524;28;20105;-92
2022/07/01 03:15:50;;;;;;;42.43;18.37;;;;;;;12.81;100.00;101575.41;4991307;28;20784;-91
2022/07/01 03:18:15;;;;;;;45.07;18.47;;;;;;;12.86;100.00;101577.00;4989402;28;20436;-91
2022/07/01 03:20:40;;;;;;;43.10;17.77;;;;;;;12.89;100.00;101576.97;4992883;28;20293;-91
2022/07/01 03:23:06;;;;;;;42.53;18.08;;;;;;;12.88;100.00;101588.25;4990933;28;20038;-92
2022/07/01 03:25:31;;;;;;;42.47;18.85;;;;;;;12.92;100.00;101583.81;4992941;28;20440;-92
2022/07/01 03:27:57;;;;;;;42.58;18.50;;;;;;;12.90;100.00;101556.97;4992371;28;20032;-92
2022/07/01 03:30:22;;;;;;;48.05;19.20;;;;;;;12.98;100.00;101571.53;4979020;28;20397;-91
2022/07/01 03:32:48;;;;;;;46.63;18.52;;;;;;;12.99;100.00;101580.19;4984008;28;20065;-91
2022/07/01 03:37:57;;;;;;;45.33;18.80;;;;;;;12.98;100.00;101576.72;4990104;28;20120;-91
2022/07/01 03:40:23;;;;;;;43.83;19.27;;;;;;;12.98;100.00;101574.13;4987184;28;20329;-91
2022/07/01 03:42:48;;;;;;;44.13;18.48;;;;;;;13.05;100.00;101583.53;4990923;28;20397;-91
2022/07/01 03:45:14;;;;;;;50.88;18.60;;;;;;;13.13;100.00;101588.59;4991949;28;20162;-92
2022/07/01 03:47:45;;;;;;;54.35;20.70;;;;;;;13.09;100.00;101588.66;4972530;28;20026;-91
2022/07/01 03:50:10;;;;;;;51.40;20.17;;;;;;;13.14;100.00;101595.50;4982062;28;20374;-91
2022/07/01 03:52:36;;;;;;;49.22;20.15;;;;;;;13.19;100.00;101611.03;4988974;28;20492;-91
2022/07/01 03:55:02;;;;;;;51.67;21.02;;;;;;;13.16;100.00;101613.72;4971359;28;20041;-91
2022/07/01 03:57:27;;;;;;;50.67;20.40;;;;;;;13.15;100.00;101618.06;4990303;28;20037;-91
2022/07/01 03:59:52;;;;;;;46.20;19.07;;;;;;;13.22;100.00;101626.59;4992258;28;20496;-91
2022/07/01 04:02:17;;;;;;;47.80;19.67;;;;;;;13.24;100.00;101615.22;4986601;28;20289;-91
2022/07/01 04:04:43;;;;;;;50.60;20.33;;;;;;;13.23;100.00;101629.16;4989758;28;20026;-92
2022/07/01 04:07:11;;;;;;;52.00;21.45;;;;;;;13.21;100.00;101627.47;4991427;28;20359;-91
2022/07/01 04:09:36;;;;;;;51.80;19.85;;;;;;;13.24;100.00;101630.84;4987908;28;20076;-91
2022/07/01 04:12:02;;;;;;;49.83;21.15;;;;;;;13.23;100.00;101625.69;4977891;28;20030;-92
2022/07/01 04:14:29;;;;;;;57.17;21.40;;;;;;;13.24;100.00;101630.00;4984577;28;20023;-92
2022/07/01 04:16:55;;;;;;;49.08;20.27;;;;;;;13.20;100.00;101625.75;4981414;28;20085;-93
2022/07/01 04:19:21;;;;;;;48.55;20.13;;;;;;;13.20;100.00;101618.81;4983689;28;20133;-92
2022/07/01 04:24:32;;;;;;;49.55;21.17;;;;;;;13.21;100.00;101636.16;4968666;28;20625;-92
2022/07/01 04:26:58;;;;;;;53.05;20.55;;;;;;;13.18;100.00;101620.56;4964286;28;20740;-91
2022/07/01 04:29:23;;;;;;;50.20;21.05;;;;;;;13.14;100.00;101618.94;4980391;28;20034;-91
2022/07/01 04:31:49;;;;;;;50.50;20.58;;;;;;;13.15;100.00;101612.84;4972745;28;20189;-92
2022/07/01 04:34:15;;;;;;;48.80;20.52;;;;;;;13.15;100.00;101617.19;4950085;28;20023;-92
2022/07/01 04:36:40;;;;;;;54.13;22.10;;;;;;;13.09;100.00;101617.31;4976422;28;20041;-93
2022/07/01 04:39:07;;;;;;;50.95;21.83;;;;;;;13.07;100.00;101618.19;4985738;28;20030;-92
2022/07/01 04:44:18;;;;;;;49.60;21.10;;;;;;;13.09;100.00;101631.19;4967285;28;20934;-92
2022/07/01 04:46:43;;;;;;;50.53;20.88;;;;;;;13.05;100.00;101625.16;4971169;28;20034;-92
2022/07/01 04:49:09;;;;;;;48.92;21.27;;;;;;;13.03;100.00;101636.50;4988270;28;20045;-93
2022/07/01 04:51:34;;;;;;;50.85;21.17;;;;;;;13.04;100.00;101643.41;4991345;28;20018;-92
2022/07/01 04:54:04;;;;;;;51.88;20.95;;;;;;;13.06;100.00;101641.63;4976980;28;20037;-92
2022/07/01 04:56:30;;;;;;;50.30;21.70;;;;;;;12.99;100.00;101632.25;4950884;28;20026;-92
2022/07/01 04:58:56;;;;;;;55.00;22.02;;;;;;;13.02;100.00;101642.59;4971853;28;20036;-92
2022/07/01 05:01:22;;;;;;;53.47;21.88;;;;;;;13.02;100.00;101629.59;4971225;28;20031;-92
2022/07/01 05:03:48;;;;;;;54.70;22.27;;;;;;;13.06;100.00;101629.47;4971926;28;20418;-91
2022/07/01 05:06:13;;;;;;;55.40;20.90;;;;;;;13.08;100.00;101624.25;4972138;28;20041;-92
2022/07/01 05:08:38;;;;;;;57.33;23.08;;;;;;;13.14;100.00;101639.78;4982056;28;20038;-93
2022/07/01 05:11:03;;;;;;;59.25;22.92;;;;;;;13.20;100.00;101634.44;4970294;28;20022;-92
2022/07/01 05:13:29;;;;;;;60.08;22.33;;;;;;;13.24;100.00;101643.88;4970377;28;20336;-93
2022/07/01 05:15:54;;;;;;;60.22;23.20;;;;;;;13.30;100.00;101640.31;4953121;28;20046;-92
2022/07/01 05:23:47;;;;;;;53.22;20.48;;;;;;;13.32;100.00;101634.16;4990196;28;20080;-93
2022/07/01 05:26:18;;;;;;;49.22;19.50;;;;;;;13.30;100.00;101635.09;4976554;28;20610;-93
2022/07/01 05:28:44;;;;;;;49.80;19.92;;;;;;;13.34;100.00;101634.13;4970058;28;20066;-92
2022/07/01 05:31:10;;;;;;;47.97;19.30;;;;;;;13.38;100.00;101634.00;4989798;28;20042;-93
2022/07/01 05:33:36;;;;;;;48.90;19.98;;;;;;;13.42;100.00;101616.59;4972681;28;20677;-92
2022/07/01 05:36:01;;;;;;;44.58;19.27;;;;;;;13.47;100.00;101632.09;4987708;28;20516;-92
2022/07/01 05:38:27;;;;;;;46.60;18.13;;;;;;;13.52;100.00;101627.63;4968329;28;20414;-92
2022/07/01 05:40:53;;;;;;;44.30;17.80;;;;;;;13.57;100.00;101631.88;4968311;28;20405;-93
2022/07/01 05:43:19;;;;;;;39.08;16.38;;;;;;;13.58;100.00;101628.34;4975114;28;20030;-93
2022/07/01 05:45:44;;;;;;;40.28;16.13;;;;;;;13.62;100.00;101635.22;4974997;28;20397;-93
2022/07/01 05:48:09;;;;;;;35.13;15.02;;;;;;;13.65;100.00;101629.91;4985163;28;20034;-85
2022/07/01 05:50:35;;;;;;;35.42;16.05;;;;;;;13.67;100.00;101632.47;4990676;28;20081;-85
2022/07/01 05:53:00;;;;;;;32.95;15.77;;;;;;;13.69;100.00;101633.31;4988405;28;20121;-85
2022/07/01 05:55:25;;;;;;;32.60;15.57;;;;;;;13.67;100.00;101627.28;4971465;28;20106;-85
2022/07/01 05:57:51;;;;;;;33.78;15.23;;;;;;;13.71;100.00;101640.22;4963907;28;20027;-85
2022/07/01 06:00:17;;;;;;;31.27;15.55;;;;;;;13.64;100.00;101646.47;4972261;28;20544;-85
2022/07/01 06:02:42;;;;;;;34.13;14.88;;;;;;;13.55;100.00;101649.25;4991008;28;20394;-86
2022/07/01 06:05:08;;;;;;;36.53;16.10;;;;;;;13.50;100.00;101645.06;4995596;28;20038;-86
2022/07/01 06:07:33;;;;;;;32.95;16.30;;;;;;;13.51;100.00;101636.34;4991087;28;20097;-85
2022/07/01 06:09:58;;;;;;;35.95;15.70;;;;;;;13.41;100.00;101633.94;4975663;28;20536;-85
2022/07/01 06:12:24;;;;;;;38.17;16.80;;;;;;;13.41;100.00;101644.38;4987950;28;20477;-85
2022/07/01 06:14:49;;;;;;;36.35;16.77;;;;;;;13.41;100.00;101636.56;4980288;28;20560;-85
2022/07/01 06:17:16;;;;;;;32.35;16.08;;;;;;;13.46;100.00;101633.84;4958574;28;20027;-85
2022/07/01 06:19:41;;;;;;;36.17;16.75;;;;;;;13.50;100.00;101632.91;4983538;28;20042;-85
2022/07/01 06:22:07;;;;;;;35.30;17.48;;;;;;;13.57;100.00;101647.50;4987703;28;20022;-85
2022/07/01 06:24:32;;;;;;;36.40;17.17;;;;;;;13.59;100.00;101637.88;4987891;28;20413;-85
2022/07/01 06:26:58;;;;;;;37.42;16.30;;;;;;;13.63;100.00;101644.75;4989068;28;20045;-85
2022/07/01 06:29:23;;;;;;;35.15;15.50;;;;;;;13.70;100.00;101637.63;4986046;28;21603;-85
2022/07/01 06:31:48;;;;;;;34.72;16.88;;;;;;;13.75;100.00;101631.41;4974391;28;20449;-85
2022/07/01 06:34:14;;;;;;;29.73;15.45;;;;;;;13.89;100.00;101633.69;4988353;28;20524;-86
2022/07/01 06:36:39;;;;;;;33.22;15.57;;;;;;;14.01;100.00;101635.97;4959083;28;20035;-86
2022/07/01 06:39:04;;;;;;;35.10;16.20;;;;;;;14.03;100.00;101629.00;4987128;28;20037;-85
2022/07/01 06:41:30;;;;;;;28.75;13.80;;;;;;;14.03;100.00;101633.34;4989518;28;20034;-85
2022/07/01 06:43:56;;;;;;;30.30;14.15;;;;;;;13.99;100.00;101635.16;4991366;28;20030;-86
2022/07/01 06:46:22;;;;;;;32.72;14.68;;;;;;;13.98;100.00;101625.66;4975053;28;20115;-85
2022/07/01 06:48:48;;;;;;;26.65;13.63;;;;;;;13.98;100.00;101638.69;4976563;28;20030;-94
2022/07/01 06:51:13;;;;;;;27.42;14.88;;;;;;;14.03;100.00;101638.56;4975862;28;20045;-94
2022/07/01 06:53:39;;;;;;;30.98;14.70;;;;;;;14.07;100.00;101642.78;4989667;28;20572;-94
2022/07/01 06:56:05;;;;;;;32.38;15.25;;;;;;;14.15;100.00;101641.69;4974841;28;20386;-94
2022/07/01 06:58:31;;;;;;;31.23;15.50;;;;;;;14.24;100.00;101649.28;4986554;28;20477;-94
2022/07/01 07:00:56;;;;;;;28.58;15.15;;;;;;;14.35;100.00;101656.81;4992754;28;20257;-94
2022/07/01 07:03:22;;;;;;;27.55;14.45;;;;;;;14.49;100.00;101648.66;4990320;28;20068;-94
2022/07/01 07:05:47;;;;;;;31.58;14.45;;;;;;;14.58;100.00;101656.25;4993737;28;20084;-94
2022/07/01 07:08:12;;;;;;;28.50;14.68;;;;;;;14.67;100.00;101655.16;4990360;28;20053;-94
2022/07/01 07:10:38;;;;;;;26.67;13.75;;;;;;;14.76;100.00;101653.13;5011922;28;20061;-94
2022/07/01 07:13:03;;;;;;;31.13;14.20;;;;;;;14.85;98.18;101665.94;4992363;28;20162;-94
2022/07/01 07:15:28;;;;;;;26.02;13.45;;;;;;;14.91;98.30;101672.72;4990507;28;20069;-94
2022/07/01 07:17:57;;;;;;;26.45;12.98;;;;;;;14.92;97.26;101675.31;4988690;28;20044;-94
2022/07/01 07:20:23;;;;;;;23.33;12.57;;;;;;;14.91;97.78;101670.97;4991614;28;20424;-94
2022/07/01 07:22:48;;;;;;;26.02;13.77;;;;;;;15.01;97.98;101667.19;4992835;28;20026;-94
2022/07/01 07:25:13;;;;;;;26.52;12.05;;;;;;;15.15;98.31;101664.19;4972922;28;20022;-94
2022/07/01 07:27:39;;;;;;;25.30;12.03;;;;;;;15.30;97.41;101676.78;5005705;28;20019;-95
2022/07/01 07:30:04;;;;;;;23.13;10.90;;;;;;;15.43;94.77;101693.81;4993127;28;20270;-93
2022/07/01 07:32:30;;;;;;;21.40;9.73;;;;;;;15.50;91.69;101699.69;4990645;28;20749;-93
2022/07/01 07:34:55;;;;;;;19.15;10.23;;;;;;;15.46;89.24;101698.09;4993152;28;20030;-96
2022/07/01 07:37:21;;;;;;;18.98;10.32;;;;;;;15.44;89.66;101710.34;4992965;28;20080;-94
2022/07/01 07:39:46;;;;;;;19.83;9.98;;;;;;;15.41;92.89;101700.84;4992405;28;20473;-93
2022/07/01 07:42:12;;;;;;;18.88;9.98;;;;;;;15.41;94.83;101702.63;4988197;28;20584;-93
2022/07/01 07:44:37;;;;;;;18.88;10.20;;;;;;;15.55;94.96;101708.31;4975182;28;20030;-93
2022/07/01 07:47:02;;;;;;;16.95;9.85;;;;;;;15.78;90.75;101710.19;4975426;28;20026;-93
2022/07/01 07:49:29;;;;;;;19.23;9.38;;;;;;;16.14;91.80;101708.16;4975059;28;20105;-86
2022/07/01 07:51:54;;;;;;;18.27;8.68;;;;;;;16.71;87.55;101705.38;4991640;28;20022;-84
2022/07/01 07:54:20;;;;;;;16.63;8.27;;;;;;;17.34;87.93;101706.53;4986963;28;20031;-84
2022/07/01 07:56:45;;;;;;;18.10;8.90;;;;;;;18.02;87.93;101710.84;4983034;28;20026;-84
2022/07/01 07:59:10;;;;;;;14.43;7.90;;;;;;;18.89;78.03;101710.69;4974666;28;20142;-84
2022/07/01 08:01:36;;;;;;;16.85;7.43;;;;;;;19.85;76.16;101714.13;4992291;28;20037;-85
2022/07/01 08:04:01;;;;;;;12.10;6.83;;;;;;;20.41;76.64;101708.69;4979079;28;20030;-85
2022/07/01 08:06:28;;;;;;;11.27;5.75;;;;;;;20.82;68.04;101707.41;4974533;28;20360;-85
2022/07/01 08:08:54;;;;;;;14.07;5.72;;;;;;;20.78;68.90;101710.28;4992105;28;20081;-85
2022/07/01 08:11:19;;;;;;;8.98;5.70;;;;;;;20.32;69.00;101709.16;4991262;28;20026;-84
2022/07/01 08:13:44;;;;;;;9.32;5.25;;;;;;;20.11;66.73;101713.69;4974159;28;20041;-85
2022/07/01 08:16:10;;;;;;;9.65;5.47;;;;;;;20.13;68.80;101723.22;4991928;28;20023;-85
2022/07/01 08:18:35;;;;;;;10.93;5.13;;;;;;;20.35;70.13;101714.28;4992337;28;20058;-91
2022/07/01 08:21:01;;;;;;;9.20;4.70;;;;;;;20.49;65.66;101707.38;4993421;28;20513;-92
2022/07/01 08:23:26;;;;;;;8.63;4.70;;;;;;;20.51;66.76;101712.56;4992335;28;20050;-93
2022/07/01 08:25:52;;;;;;;9.15;4.88;;;;;;;20.68;69.51;101701.16;4992666;28;20106;-93
2022/07/01 08:28:18;;;;;;;9.13;4.80;;;;;;;20.73;70.32;101726.34;4991597;28;20018;-92
2022/07/01 08:30:43;;;;;;;7.93;4.47;;;;;;;20.82;67.97;101733.75;4992898;28;20058;-92
2022/07/01 08:33:10;;;;;;;7.35;3.90;;;;;;;20.82;69.48;101738.19;5004448;28;20037;-92
2022/07/01 08:35:36;;;;;;;6.40;3.67;;;;;;;20.84;67.49;101734.53;4994239;28;20099;-96
2022/07/01 08:38:02;;;;;;;6.07;3.30;;;;;;;20.96;63.87;101738.31;4992741;28;20033;-94
2022/07/01 08:40:29;;;;;;;8.45;3.22;;;;;;;21.01;59.77;101735.44;4972846;28;20034;-94
2022/07/01 08:43:00;;;;;;;5.45;3.28;;;;;;;21.00;63.81;101746.94;4964026;28;20031;-95
2022/07/01 08:45:29;;;;;;;5.40;3.00;;;;;;;21.16;63.56;101738.13;4990066;28;20386;-94
2022/07/01 08:48:02;;;;;;;6.90;2.80;;;;;;;21.08;62.10;101747.38;4991916;28;20030;-95
2022/07/01 08:50:37;;;;;;;5.10;2.53;;;;;;;21.01;62.31;101751.28;4974591;28;20170;-95
2022/07/01 08:53:04;;;;;;;6.20;2.38;;;;;;;20.90;60.81;101746.53;4992302;28;20022;-95
2022/07/01 08:55:30;;;;;;;5.10;2.45;;;;;;;20.60;56.93;101750.78;4992026;28;20088;-92
2022/07/01 08:57:56;;;;;;;6.13;2.30;;;;;;;20.44;59.72;101751.53;4991187;28;20449;-95
2022/07/01 09:00:22;;;;;;;5.70;2.45;;;;;;;20.52;62.64;101752.94;4992217;28;20488;-93
2022/07/01 09:02:56;;;;;;;4.18;2.38;;;;;;;20.82;66.60;101751.34;4991824;28;20050;-95
2022/07/01 09:05:23;;;;;;;4.07;2.00;;;;;;;21.08;62.69;101755.28;4990960;28;20501;-94
2022/07/01 09:07:49;;;;;;;6.57;2.28;;;;;;;21.26;57.77;101752.56;4974005;28;20030;-93
2022/07/01 09:10:19;;;;;;;3.83;2.03;;;;;;;21.53;59.82;101738.78;4991924;28;20049;-95
2022/07/01 09:12:46;;;;;;;7.18;2.40;;;;;;;21.74;59.20;101742.03;4983065;28;20511;-95
2022/07/01 09:15:25;;;;;;;4.85;2.38;;;;;;;21.80;60.74;101755.72;4979813;28;20035;-96
2022/07/01 09:17:52;;;;;;;4.75;2.78;;;;;;;21.82;55.83;101743.31;4984077;28;20069;-95
2022/07/01 09:20:32;;;;;;;4.05;2.58;;;;;;;21.83;57.62;101744.16;4991885;28;20026;-94
2022/07/01 09:23:06;;;;;;;5.07;2.22;;;;;;;21.86;57.76;101752.75;4991159;28;20033;-96
2022/07/01 09:25:37;;;;;;;6.90;2.50;;;;;;;21.92;53.68;101747.13;4990386;28;20061;-93
2022/07/01 09:28:12;;;;;;;5.20;2.28;;;;;;;21.87;55.35;101750.97;4973336;28;20152;-95
2022/07/01 09:30:39;;;;;;;3.78;2.33;;;;;;;21.81;55.73;101749.53;4991093;28;20029;-94
2022/07/01 09:33:15;;;;;;;3.97;2.50;;;;;;;21.94;52.72;101757.59;4972834;28;20178;-93
2022/07/01 09:35:41;;;;;;;5.25;2.70;;;;;;;22.03;53.73;101755.31;4990710;28;20033;-95
2022/07/01 09:38:09;;;;;;;6.30;2.90;;;;;;;22.02;51.97;101758.06;4975574;28;20023;-93
2022/07/01 09:40:47;;;;;;;4.93;2.70;;;;;;;21.90;53.19;101756.94;4987019;28;20030;-93
2022/07/01 09:43:23;;;;;;;3.85;2.30;;;;;;;21.89;55.42;101757.88;4990564;28;20490;-95
2022/07/01 09:46:00;;;;;;;6.20;2.70;;;;;;;21.98;54.66;101757.34;4990983;28;20022;-94
2022/07/01 09:48:45;;;;;;;4.28;2.22;;;;;;;21.96;54.35;101761.91;4990765;28;20105;-94
2022/07/01 09:51:12;;;;;;;3.55;2.45;;;;;;;21.72;51.28;101759.72;4972731;28;20533;-94
2022/07/01 09:53:38;;;;;;;5.03;2.40;;;;;;;21.73;51.18;101762.28;4990677;28;20084;-94
2022/07/01 09:56:04;;;;;;;3.88;2.33;;;;;;;21.96;54.23;101769.81;4958940;28;20039;-93
2022/07/01 09:58:32;;;;;;;6.55;2.50;;;;;;;22.11;51.31;101772.53;4996906;28;20508;-93
2022/07/01 10:00:58;;;;;;;5.25;2.28;;;;;;;22.12;50.30;101774.19;4997447;28;20065;-94
2022/07/01 10:03:26;;;;;;;4.35;2.15;;;;;;;22.14;50.91;101775.84;4987634;28;20058;-94
2022/07/01 10:06:03;;;;;;;5.30;2.35;;;;;;;22.26;51.00;101772.47;4971269;28;20083;-93
2022/07/01 10:08:58;;;;;;;4.45;2.40;;;;;;;22.38;54.79;101779.69;4978331;28;20093;-94
2022/07/01 10:12:24;;;;;;;4.68;2.58;;;;;;;22.31;56.74;101780.16;4953724;28;20292;-93
2022/07/01 10:14:51;;;;;;;5.70;2.90;;;;;;;22.50;54.80;101786.06;4891184;29;20036;-94
2022/07/01 10:17:31;;;;;;;4.18;2.30;;;;;;;22.80;57.41;101786.06;4989380;28;20417;-94
2022/07/01 10:20:07;;;;;;;5.10;2.60;;;;;;;22.91;50.24;101788.94;4994163;28;20381;-83
2022/07/01 10:22:36;;;;;;;4.00;2.33;;;;;;;22.87;47.33;101797.13;4994108;28;20027;-84
2022/07/01 10:25:32;;;;;;;3.30;1.80;;;;;;;22.95;50.73;101805.47;4992366;28;20562;-84
2022/07/01 10:28:12;;;;;;;4.55;2.00;;;;;;;23.07;51.15;101802.06;4978624;28;20105;-83
2022/07/01 10:31:05;;;;;;;5.15;2.00;;;;;;;23.10;48.98;101802.75;4993901;28;20034;-84
2022/07/01 10:33:33;;;;;;;4.63;1.90;;;;;;;22.96;45.99;101812.44;4976388;28;20080;-84
2022/07/01 10:36:06;;;;;;;5.45;1.70;;;;;;;22.75;47.58;101812.78;4993656;28;20030;-83
2022/07/01 10:38:31;;;;;;;4.63;1.67;;;;;;;22.40;46.96;101811.31;4988911;28;20041;-84
2022/07/01 10:41:09;;;;;;;3.50;1.80;;;;;;;22.28;46.30;101806.75;4992839;28;20026;-83
2022/07/01 10:43:36;;;;;;;5.28;1.70;;;;;;;22.09;46.99;101816.66;4994165;28;20037;-84
2022/07/01 10:46:01;;;;;;;3.55;1.80;;;;;;;21.84;49.24;101807.41;4993457;28;20105;-83
2022/07/01 10:48:31;;;;;;;4.43;1.70;;;;;;;21.78;49.62;101798.97;4993814;28;20106;-90
2022/07/01 10:50:57;;;;;;;4.10;1.70;;;;;;;21.67;47.81;101795.16;4976066;28;20038;-91
2022/07/01 10:53:22;;;;;;;4.28;1.70;;;;;;;21.75;49.19;101796.53;4988340;28;20018;-94
2022/07/01 10:55:52;;;;;;;3.67;1.67;;;;;;;22.01;50.45;101799.44;4993580;28;20488;-93
2022/07/01 10:58:21;;;;;;;5.63;1.90;;;;;;;22.35;49.57;101798.38;4993305;28;20561;-92
2022/07/01 11:00:49;;;;;;;3.40;1.73;;;;;;;22.71;48.96;101803.31;4993596;28;20041;-91
2022/07/01 11:03:17;;;;;;;4.60;1.98;;;;;;;22.91;52.02;101799.50;4992793;28;20508;-95
2022/07/01 11:05:44;;;;;;;8.02;1.80;;;;;;;23.10;47.53;101804.53;4975830;28;20080;-92
2022/07/01 11:08:11;;;;;;;4.70;1.77;;;;;;;22.94;51.64;101791.38;4974940;28;20025;-90
2022/07/01 11:10:38;;;;;;;3.55;1.70;;;;;;;22.54;45.59;101797.31;4993251;28;20102;-93
2022/07/01 11:13:04;;;;;;;3.78;2.10;;;;;;;22.27;47.17;101797.97;4993008;28;20027;-93
2022/07/01 11:15:30;;;;;;;4.22;1.65;;;;;;;22.19;47.28;101791.41;4993150;28;20164;-94
2022/07/01 11:17:56;;;;;;;4.65;1.73;;;;;;;22.36;50.49;101794.81;4975566;28;20050;-94
2022/07/01 11:20:23;;;;;;;3.65;1.70;;;;;;;22.30;47.17;101797.81;4975593;28;20505;-90
2022/07/01 11:22:50;;;;;;;4.68;1.80;;;;;;;22.03;49.49;101791.44;4990895;28;20034;-93
2022/07/01 11:25:18;;;;;;;5.72;1.98;;;;;;;21.77;50.53;101795.47;4992072;28;20393;-94
2022/07/01 11:27:48;;;;;;;5.53;1.65;;;;;;;21.57;51.21;101798.38;4992128;28;20535;-94
2022/07/01 11:30:14;;;;;;;4.05;1.60;;;;;;;21.59;50.30;101791.22;4992985;28;20022;-94
2022/07/01 11:32:44;;;;;;;4.68;1.70;;;;;;;21.50;47.19;101775.88;4993326;28;20030;-93
2022/07/01 11:40:55;;;;;;;5.20;1.50;;;;;;;21.90;52.45;101775.41;4991387;28;20073;-95
2022/07/01 11:43:23;;;;;;;6.03;1.90;;;;;;;22.08;50.57;101777.97;4975385;28;20092;-94
2022/07/01 11:45:49;;;;;;;4.47;1.75;;;;;;;22.18;47.85;101774.69;4992804;28;20397;-91
2022/07/01 11:48:34;;;;;;;4.03;1.63;;;;;;;22.28;50.54;101767.13;5004817;28;20484;-93
2022/07/01 11:51:05;;;;;;;4.57;1.70;;;;;;;21.98;50.64;101772.34;4973475;28;20082;-92
2022/07/01 11:53:30;;;;;;;5.25;1.70;;;;;;;21.76;51.24;101762.13;4974697;28;20050;-93
2022/07/01 11:55:55;;;;;;;5.63;1.73;;;;;;;21.89;51.72;101765.78;4992493;28;20421;-92
2022/07/01 11:58:21;;;;;;;4.22;1.77;;;;;;;21.96;50.71;101769.81;4992144;28;20030;-91
2022/07/01 12:00:47;;;;;;;3.78;1.52;;;;;;;21.83;48.01;101760.84;4992814;28;20081;-93
2022/07/01 12:03:12;;;;;;;4.53;1.80;;;;;;;21.66;48.75;101761.78;4992054;28;20480;-92
2022/07/01 12:05:38;;;;;;;5.47;1.65;;;;;;;21.45;50.21;101777.94;4996569;28;20109;-91
2022/07/01 12:08:04;;;;;;;6.55;1.60;;;;;;;21.23;53.45;101778.22;4991456;28;20026;-92
2022/07/01 12:10:30;;;;;;;4.75;1.67;;;;;;;21.04;54.75;101769.53;4992029;28;20036;-92
2022/07/01 12:12:56;;;;;;;2.92;1.48;;;;;;;21.06;51.71;101773.81;4974567;28;20105;-93